createdAt,value
2023-01-31T00:02:36.346Z,8.15
2023-01-31T00:05:28.906Z,9.43
2023-01-31T00:08:20.506Z,12.65
2023-01-31T00:11:14.866Z,6.28
2023-01-31T00:14:10.798Z,8.70
2023-01-31T00:17:02.440Z,10.43
2023-01-31T00:19:53.970Z,6.10
2023-01-31T00:22:45.383Z,6.37
2023-01-31T00:25:37.034Z,5.85
2023-01-31T00:31:13.341Z,11.40
2023-01-31T00:34:05.216Z,11.20
2023-01-31T00:36:56.909Z,10.82
2023-01-31T00:39:47.971Z,14.45
2023-01-31T00:42:41.439Z,13.43
2023-01-31T00:45:37.015Z,14.25
2023-01-31T00:48:28.176Z,6.50
2023-01-31T00:51:20.872Z,11.70
2023-01-31T00:54:12.965Z,12.15
2023-01-31T00:57:04.475Z,14.23
2023-01-31T00:59:56.322Z,13.18
2023-01-31T01:02:47.886Z,14.90
2023-01-31T01:05:39.673Z,15.08
2023-01-31T01:08:45.750Z,13.30
2023-01-31T01:11:37.764Z,14.40
2023-01-31T01:14:29.723Z,14.03
2023-01-31T01:17:21.792Z,15.45
2023-01-31T01:23:03.586Z,16.05
2023-01-31T01:25:55.288Z,13.30
2023-01-31T01:28:47.158Z,16.30
2023-01-31T01:31:40.424Z,15.50
2023-01-31T01:34:33.157Z,16.50
2023-01-31T01:37:24.851Z,15.10
2023-01-31T01:40:16.573Z,13.85
2023-01-31T01:43:09.497Z,16.40
2023-01-31T01:46:00.800Z,15.45
2023-01-31T01:48:55.469Z,14.10
2023-01-31T01:51:49.296Z,14.73
2023-01-31T01:54:43.718Z,14.63
2023-01-31T01:57:38.149Z,13.60
2023-01-31T02:03:13.295Z,15.65
2023-01-31T02:06:07.568Z,14.87
2023-01-31T02:08:59.424Z,15.40
2023-01-31T02:11:51.398Z,15.60
2023-01-31T02:17:27.966Z,15.35
2023-01-31T02:20:45.660Z,15.32
2023-01-31T02:30:31.620Z,17.75
2023-01-31T02:33:30.474Z,16.48
2023-01-31T02:36:28.062Z,17.42
2023-01-31T02:39:25.903Z,15.98
2023-01-31T02:42:21.590Z,16.62
2023-01-31T02:45:17.155Z,17.10
2023-01-31T02:51:09.703Z,17.27
2023-01-31T02:54:06.147Z,17.55
2023-01-31T02:56:58.600Z,17.67
2023-01-31T02:59:50.009Z,18.45
2023-01-31T03:02:42.485Z,17.48
2023-01-31T03:05:34.257Z,18.60
2023-01-31T03:08:25.952Z,21.10
2023-01-31T03:11:20.682Z,17.25
2023-01-31T03:14:17.167Z,19.35
2023-01-31T03:17:34.393Z,18.40
2023-01-31T03:20:34.172Z,16.70
2023-01-31T03:26:19.517Z,18.60
2023-01-31T03:29:15.549Z,19.32
2023-01-31T03:32:12.137Z,17.10
2023-01-31T03:35:04.836Z,16.75
2023-01-31T03:37:59.609Z,18.05
2023-01-31T03:40:54.276Z,18.70
2023-01-31T03:49:19.998Z,18.82
2023-01-31T03:52:19.312Z,20.23
2023-01-31T03:55:15.148Z,19.67
2023-01-31T04:00:56.428Z,17.95
2023-01-31T04:03:51.082Z,19.55
2023-01-31T04:06:43.632Z,17.73
2023-01-31T04:12:22.274Z,18.92
2023-01-31T04:15:16.482Z,18.10
2023-01-31T04:18:08.342Z,18.00
2023-01-31T04:21:03.641Z,19.25
2023-01-31T04:23:56.659Z,19.80
2023-01-31T04:26:48.082Z,17.55
2023-01-31T04:29:39.625Z,19.30
2023-01-31T04:32:31.870Z,20.62
2023-01-31T04:35:23.634Z,19.05
2023-01-31T04:41:04.730Z,19.52
2023-01-31T04:43:56.311Z,19.77
2023-01-31T04:46:48.111Z,19.17
2023-01-31T04:49:40.052Z,19.10
2023-01-31T04:52:31.768Z,18.73
2023-01-31T04:55:23.740Z,19.70
2023-01-31T04:58:15.347Z,19.90
2023-01-31T05:01:06.828Z,17.82
2023-01-31T05:03:59.112Z,16.02
2023-01-31T05:06:50.583Z,19.37
2023-01-31T05:09:44.330Z,19.45
2023-01-31T05:12:36.330Z,17.02
2023-01-31T05:15:27.956Z,19.98
2023-01-31T05:18:20.079Z,19.32
2023-01-31T05:21:12.880Z,20.80
2023-01-31T05:24:04.807Z,20.35
2023-01-31T05:26:59.417Z,19.30
2023-01-31T05:29:51.482Z,19.75
2023-01-31T05:32:44.739Z,18.80
2023-01-31T05:35:36.507Z,21.00
2023-01-31T05:38:28.376Z,18.87
2023-01-31T05:41:19.958Z,17.77
2023-01-31T05:44:17.777Z,20.80
2023-01-31T05:47:05.267Z,19.07
2023-01-31T05:49:56.816Z,20.88
2023-01-31T05:52:54.956Z,19.30
2023-01-31T05:55:46.649Z,19.73
2023-01-31T05:58:38.282Z,17.48
2023-01-31T06:01:31.084Z,17.57
2023-01-31T06:04:22.985Z,19.95
2023-01-31T06:09:53.237Z,17.30
2023-01-31T06:12:44.606Z,19.23
2023-01-31T06:15:37.924Z,19.25
2023-01-31T06:18:29.358Z,18.55
2023-01-31T06:21:21.424Z,19.95
2023-01-31T06:24:12.994Z,18.50
2023-01-31T06:27:04.464Z,18.12
2023-01-31T06:29:56.681Z,18.55
2023-01-31T06:32:49.538Z,19.90
2023-01-31T06:35:41.816Z,20.27
2023-01-31T06:38:34.239Z,20.15
2023-01-31T06:41:26.398Z,20.40
2023-01-31T06:44:20.122Z,19.90
2023-01-31T06:47:13.325Z,22.95
2023-01-31T06:50:07.586Z,19.50
2023-01-31T06:53:00.266Z,18.73
2023-01-31T06:56:14.120Z,22.10
2023-01-31T06:59:05.763Z,20.20
2023-01-31T07:02:00.858Z,21.82
2023-01-31T07:04:52.923Z,21.48
2023-01-31T07:07:44.827Z,21.63
2023-01-31T07:10:36.561Z,19.67
2023-01-31T07:13:33.663Z,20.48
2023-01-31T07:16:28.772Z,20.00
2023-01-31T07:19:22.091Z,17.15
2023-01-31T07:24:55.558Z,19.65
2023-01-31T07:27:47.313Z,22.67
2023-01-31T07:30:40.307Z,20.60
2023-01-31T07:33:32.683Z,18.90
2023-01-31T07:36:26.123Z,21.17
2023-01-31T07:39:21.978Z,20.15
2023-01-31T07:42:13.418Z,20.23
2023-01-31T07:45:21.956Z,19.77
2023-01-31T07:48:01.274Z,20.27
2023-01-31T07:50:53.161Z,20.92
2023-01-31T07:53:44.428Z,20.60
2023-01-31T07:56:35.968Z,18.57
2023-01-31T07:59:27.673Z,21.27
2023-01-31T08:02:38.101Z,20.62
2023-01-31T08:05:30.333Z,23.45
2023-01-31T08:08:24.109Z,20.48
2023-01-31T08:11:16.021Z,24.02
2023-01-31T08:14:09.457Z,21.12
2023-01-31T08:17:00.952Z,22.22
2023-01-31T08:19:52.879Z,22.98
2023-01-31T08:22:44.756Z,23.73
2023-01-31T08:25:36.889Z,25.57
2023-01-31T08:28:29.545Z,26.23
2023-01-31T08:31:23.289Z,22.90
2023-01-31T08:34:16.977Z,23.60
2023-01-31T08:37:09.067Z,21.77
2023-01-31T08:40:04.235Z,24.75
2023-01-31T08:43:00.818Z,21.45
2023-01-31T08:45:52.484Z,23.42
2023-01-31T08:48:44.505Z,25.30
2023-01-31T08:51:36.707Z,29.02
2023-01-31T08:54:28.098Z,24.65
2023-01-31T08:57:21.107Z,21.48
2023-01-31T09:00:14.976Z,21.95
2023-01-31T09:03:06.825Z,23.15
2023-01-31T09:06:01.372Z,25.02
2023-01-31T09:08:53.950Z,20.48
2023-01-31T09:11:45.627Z,22.80
2023-01-31T09:14:37.463Z,24.52
2023-01-31T09:17:29.848Z,28.27
2023-01-31T09:20:22.182Z,22.32
2023-01-31T09:23:14.091Z,21.80
2023-01-31T09:26:06.796Z,24.90
2023-01-31T09:29:00.134Z,23.87
2023-01-31T09:32:03.408Z,22.17
2023-01-31T09:34:59.192Z,22.40
2023-01-31T09:37:55.375Z,25.65
2023-01-31T09:40:50.259Z,21.90
2023-01-31T09:43:50.255Z,20.00
2023-01-31T09:46:48.418Z,22.55
2023-01-31T09:49:47.294Z,23.55
2023-01-31T09:52:41.391Z,24.45
2023-01-31T09:55:42.987Z,23.15
2023-01-31T09:58:43.095Z,24.00
2023-01-31T10:01:40.704Z,25.43
2023-01-31T10:08:07.548Z,21.62
2023-01-31T10:11:06.619Z,20.95
2023-01-31T10:14:05.302Z,21.30
2023-01-31T10:17:07.061Z,18.45
2023-01-31T10:20:02.553Z,20.27
2023-01-31T10:23:01.589Z,19.32
2023-01-31T10:25:56.661Z,22.17
2023-01-31T10:31:35.143Z,21.23
2023-01-31T10:34:30.982Z,19.25
2023-01-31T10:37:28.880Z,20.57
2023-01-31T10:40:24.461Z,17.77
2023-01-31T10:43:19.377Z,17.73
2023-01-31T10:46:14.781Z,18.05
2023-01-31T10:49:06.401Z,26.10
2023-01-31T10:52:07.231Z,17.17
2023-01-31T10:55:08.292Z,19.85
2023-01-31T10:58:00.554Z,20.30
2023-01-31T11:00:59.564Z,26.27
2023-01-31T11:06:30.937Z,17.87
2023-01-31T11:09:26.277Z,19.70
2023-01-31T11:12:17.999Z,19.77
2023-01-31T11:15:18.430Z,20.85
2023-01-31T11:18:14.629Z,17.60
2023-01-31T11:21:07.680Z,18.80
2023-01-31T11:24:05.062Z,19.67
2023-01-31T11:26:59.836Z,18.07
2023-01-31T11:29:54.876Z,17.57
2023-01-31T11:32:47.911Z,21.30
2023-01-31T11:35:41.025Z,18.60
2023-01-31T11:38:32.703Z,17.65
2023-01-31T11:41:35.986Z,22.00
2023-01-31T11:44:30.648Z,17.25
2023-01-31T11:47:23.738Z,18.10
2023-01-31T11:50:27.555Z,20.52
2023-01-31T11:53:23.311Z,19.98
2023-01-31T11:56:18.545Z,20.70
2023-01-31T11:59:13.490Z,22.50
2023-01-31T12:02:07.758Z,21.07
2023-01-31T12:05:03.868Z,20.43
2023-01-31T12:07:55.938Z,17.60
2023-01-31T12:10:49.002Z,22.77
2023-01-31T12:13:52.025Z,17.92
2023-01-31T12:16:45.239Z,16.60
2023-01-31T12:19:43.985Z,18.45
2023-01-31T12:22:51.496Z,16.82
2023-01-31T12:25:50.432Z,16.82
2023-01-31T12:28:55.249Z,15.08
2023-01-31T12:31:57.757Z,17.90
2023-01-31T12:35:09.873Z,16.37
2023-01-31T12:38:04.307Z,16.00
2023-01-31T12:44:37.328Z,16.17
2023-01-31T12:47:40.796Z,14.40
2023-01-31T12:50:39.577Z,15.28
2023-01-31T12:53:44.264Z,16.75
2023-01-31T12:56:51.187Z,13.20
2023-01-31T12:59:48.501Z,11.15
2023-01-31T13:02:48.530Z,11.18
2023-01-31T13:05:44.948Z,16.52
2023-01-31T13:08:41.198Z,11.85
2023-01-31T13:14:20.058Z,9.78
2023-01-31T13:17:14.229Z,10.08
2023-01-31T13:20:09.714Z,12.23
2023-01-31T13:25:50.310Z,12.13
2023-01-31T13:28:45.540Z,13.40
2023-01-31T13:31:41.120Z,10.32
2023-01-31T13:34:37.687Z,11.78
2023-01-31T13:37:32.032Z,12.53
2023-01-31T13:40:26.360Z,10.40
2023-01-31T13:43:20.318Z,13.38
2023-01-31T13:46:14.371Z,10.18
2023-01-31T13:49:10.110Z,10.23
2023-01-31T13:52:05.493Z,8.83
2023-01-31T13:57:47.834Z,7.60
2023-01-31T14:00:42.393Z,8.00
2023-01-31T14:03:35.393Z,9.78
2023-01-31T14:06:28.314Z,8.10
2023-01-31T14:09:28.881Z,9.15
2023-01-31T14:12:37.892Z,12.03
2023-01-31T14:15:52.157Z,7.28
2023-01-31T14:18:45.844Z,6.67
2023-01-31T14:21:53.646Z,7.33
2023-01-31T14:25:16.520Z,7.75
2023-01-31T14:28:12.300Z,5.47
2023-01-31T14:31:06.975Z,10.05
2023-01-31T14:33:58.745Z,15.58
2023-01-31T14:37:01.465Z,13.30
2023-01-31T14:40:25.675Z,10.60
2023-01-31T14:43:26.357Z,11.15
2023-01-31T14:46:45.863Z,14.28
2023-01-31T14:50:04.149Z,10.63
2023-01-31T14:53:27.371Z,6.03
2023-01-31T14:56:28.997Z,6.35
2023-01-31T14:59:30.111Z,6.35
2023-01-31T15:02:28.153Z,12.55
2023-01-31T15:05:22.925Z,7.03
2023-01-31T15:08:42.984Z,9.55
2023-01-31T15:11:50.722Z,6.78
2023-01-31T15:14:41.788Z,5.15
2023-01-31T15:17:39.282Z,4.17
2023-01-31T15:20:36.815Z,5.90
2023-01-31T15:52:58.665Z,3.58
2023-01-31T15:55:52.096Z,5.22
2023-01-31T15:58:48.052Z,5.40
2023-01-31T16:01:42.788Z,4.10
2023-01-31T16:04:34.723Z,5.72
2023-01-31T16:07:28.895Z,7.50
2023-01-31T16:10:22.690Z,11.40
2023-01-31T16:13:15.429Z,10.93
2023-01-31T16:16:10.760Z,9.53
2023-01-31T16:19:03.571Z,12.98
2023-01-31T16:21:58.122Z,10.85
2023-01-31T16:24:57.460Z,6.08
2023-01-31T16:27:49.006Z,5.97
2023-01-31T16:30:44.141Z,8.65
2023-01-31T16:33:36.926Z,10.28
2023-01-31T16:36:32.466Z,10.40
2023-01-31T16:39:31.501Z,9.83
2023-01-31T16:42:28.503Z,8.73
2023-01-31T16:45:35.200Z,9.23
2023-01-31T16:48:37.457Z,6.37
2023-01-31T16:51:48.135Z,7.37
2023-01-31T16:54:49.943Z,6.75
2023-01-31T16:57:42.251Z,10.65
2023-01-31T17:00:39.184Z,6.78
2023-01-31T17:03:36.050Z,7.05
2023-01-31T17:06:27.593Z,5.35
2023-01-31T17:09:22.677Z,6.78
2023-01-31T17:12:21.189Z,7.35
